sensor_id;sensor_type;location;lat;lon;timestamp;P1;durP1;ratioP1;P2;durP2;ratioP2
5587;SDS011;2816;49.778;9.986;2022-08-03T00:00:58;2.33;;;2.13;;
5587;SDS011;2816;49.778;9.986;2022-08-03T00:03:25;6.20;;;2.03;;
5587;SDS011;2816;49.778;9.986;2022-08-03T00:05:52;2.73;;;2.20;;
5587;SDS011;2816;49.778;9.986;2022-08-03T00:08:19;2.03;;;1.90;;
5587;SDS011;2816;49.778;9.986;2022-08-03T00:10:46;1.83;;;1.60;;
5587;SDS011;2816;49.778;9.986;2022-08-03T00:13:13;8.23;;;2.17;;
5587;SDS011;2816;49.778;9.986;2022-08-03T00:15:40;3.37;;;1.93;;
5587;SDS011;2816;49.778;9.986;2022-08-03T00:18:09;2.60;;;2.03;;
5587;SDS011;2816;49.778;9.986;2022-08-03T00:20:36;2.70;;;2.07;;
5587;SDS011;2816;49.778;9.986;2022-08-03T00:23:03;3.57;;;2.50;;
5587;SDS011;2816;49.778;9.986;2022-08-03T00:25:31;6.17;;;2.20;;
5587;SDS011;2816;49.778;9.986;2022-08-03T00:27:58;2.70;;;1.87;;
5587;SDS011;2816;49.778;9.986;2022-08-03T00:30:25;2.10;;;1.90;;
5587;SDS011;2816;49.778;9.986;2022-08-03T00:32:52;2.00;;;1.80;;
5587;SDS011;2816;49.778;9.986;2022-08-03T00:35:21;3.30;;;1.80;;
5587;SDS011;2816;49.778;9.986;2022-08-03T00:37:48;1.97;;;1.80;;
5587;SDS011;2816;49.778;9.986;2022-08-03T00:40:16;2.37;;;2.07;;
5587;SDS011;2816;49.778;9.986;2022-08-03T00:42:48;3.10;;;2.10;;
5587;SDS011;2816;49.778;9.986;2022-08-03T00:45:17;3.40;;;1.97;;
5587;SDS011;2816;49.778;9.986;2022-08-03T00:47:45;4.43;;;2.20;;
5587;SDS011;2816;49.778;9.986;2022-08-03T00:50:12;4.53;;;2.20;;
5587;SDS011;2816;49.778;9.986;2022-08-03T00:52:41;3.70;;;2.30;;
5587;SDS011;2816;49.778;9.986;2022-08-03T00:55:08;5.00;;;2.10;;
5587;SDS011;2816;49.778;9.986;2022-08-03T00:57:36;2.23;;;2.00;;
5587;SDS011;2816;49.778;9.986;2022-08-03T01:00:04;4.37;;;1.97;;
5587;SDS011;2816;49.778;9.986;2022-08-03T01:02:33;3.30;;;2.20;;
5587;SDS011;2816;49.778;9.986;2022-08-03T01:05:00;4.73;;;2.23;;
5587;SDS011;2816;49.778;9.986;2022-08-03T01:07:30;5.20;;;2.30;;
5587;SDS011;2816;49.778;9.986;2022-08-03T01:10:11;5.27;;;1.93;;
5587;SDS011;2816;49.778;9.986;2022-08-03T01:12:44;2.67;;;2.40;;
5587;SDS011;2816;49.778;9.986;2022-08-03T01:15:18;2.00;;;1.90;;
5587;SDS011;2816;49.778;9.986;2022-08-03T01:17:54;2.13;;;1.93;;
5587;SDS011;2816;49.778;9.986;2022-08-03T01:20:25;2.90;;;2.10;;
5587;SDS011;2816;49.778;9.986;2022-08-03T01:23:13;3.63;;;2.30;;
5587;SDS011;2816;49.778;9.986;2022-08-03T01:26:08;1.80;;;1.70;;
5587;SDS011;2816;49.778;9.986;2022-08-03T01:28:47;2.00;;;1.90;;
5587;SDS011;2816;49.778;9.986;2022-08-03T01:31:29;2.20;;;1.97;;
5587;SDS011;2816;49.778;9.986;2022-08-03T01:34:01;2.00;;;1.80;;
5587;SDS011;2816;49.778;9.986;2022-08-03T01:36:32;3.63;;;2.40;;
5587;SDS011;2816;49.778;9.986;2022-08-03T01:39:03;2.50;;;1.90;;
5587;SDS011;2816;49.778;9.986;2022-08-03T01:41:34;3.53;;;2.20;;
5587;SDS011;2816;49.778;9.986;2022-08-03T01:44:07;2.10;;;1.83;;
5587;SDS011;2816;49.778;9.986;2022-08-03T01:46:38;2.30;;;2.10;;
5587;SDS011;2816;49.778;9.986;2022-08-03T01:49:06;5.00;;;2.20;;
5587;SDS011;2816;49.778;9.986;2022-08-03T01:51:36;4.73;;;2.20;;
5587;SDS011;2816;49.778;9.986;2022-08-03T01:54:04;2.70;;;1.80;;
5587;SDS011;2816;49.778;9.986;2022-08-03T01:56:35;2.40;;;2.00;;
5587;SDS011;2816;49.778;9.986;2022-08-03T01:59:03;2.03;;;1.83;;
5587;SDS011;2816;49.778;9.986;2022-08-03T02:01:32;3.00;;;2.20;;
5587;SDS011;2816;49.778;9.986;2022-08-03T02:04:02;2.13;;;2.03;;
5587;SDS011;2816;49.778;9.986;2022-08-03T02:06:32;2.40;;;2.20;;
5587;SDS011;2816;49.778;9.986;2022-08-03T02:08:59;2.37;;;2.20;;
5587;SDS011;2816;49.778;9.986;2022-08-03T02:11:28;2.87;;;2.23;;
5587;SDS011;2816;49.778;9.986;2022-08-03T02:13:58;5.20;;;1.90;;
5587;SDS011;2816;49.778;9.986;2022-08-03T02:16:26;4.30;;;2.20;;
5587;SDS011;2816;49.778;9.986;2022-08-03T02:18:56;4.80;;;2.20;;
5587;SDS011;2816;49.778;9.986;2022-08-03T02:21:25;3.20;;;2.23;;
5587;SDS011;2816;49.778;9.986;2022-08-03T02:23:53;2.30;;;2.10;;
5587;SDS011;2816;49.778;9.986;2022-08-03T02:26:20;4.30;;;2.30;;
5587;SDS011;2816;49.778;9.986;2022-08-03T02:28:50;8.30;;;2.10;;
5587;SDS011;2816;49.778;9.986;2022-08-03T02:31:22;3.77;;;2.40;;
5587;SDS011;2816;49.778;9.986;2022-08-03T02:33:52;4.60;;;2.20;;
5587;SDS011;2816;49.778;9.986;2022-08-03T02:36:23;2.40;;;2.20;;
5587;SDS011;2816;49.778;9.986;2022-08-03T02:38:54;8.73;;;2.70;;
5587;SDS011;2816;49.778;9.986;2022-08-03T02:41:27;4.87;;;2.27;;
5587;SDS011;2816;49.778;9.986;2022-08-03T02:43:57;7.03;;;2.37;;
5587;SDS011;2816;49.778;9.986;2022-08-03T02:46:29;7.13;;;2.60;;
5587;SDS011;2816;49.778;9.986;2022-08-03T02:48:59;2.30;;;2.10;;
5587;SDS011;2816;49.778;9.986;2022-08-03T02:51:30;4.90;;;2.60;;
5587;SDS011;2816;49.778;9.986;2022-08-03T02:54:01;3.57;;;2.87;;
5587;SDS011;2816;49.778;9.986;2022-08-03T02:56:28;2.73;;;2.40;;
5587;SDS011;2816;49.778;9.986;2022-08-03T02:58:57;5.80;;;3.80;;
5587;SDS011;2816;49.778;9.986;2022-08-03T03:01:25;4.17;;;2.40;;
5587;SDS011;2816;49.778;9.986;2022-08-03T03:03:54;3.30;;;2.33;;
5587;SDS011;2816;49.778;9.986;2022-08-03T03:06:22;7.53;;;2.57;;
5587;SDS011;2816;49.778;9.986;2022-08-03T03:08:53;8.63;;;2.67;;
5587;SDS011;2816;49.778;9.986;2022-08-03T03:11:21;9.90;;;2.53;;
5587;SDS011;2816;49.778;9.986;2022-08-03T03:13:50;2.90;;;2.10;;
5587;SDS011;2816;49.778;9.986;2022-08-03T03:16:18;6.13;;;2.90;;
5587;SDS011;2816;49.778;9.986;2022-08-03T03:18:46;3.80;;;3.07;;
5587;SDS011;2816;49.778;9.986;2022-08-03T03:21:15;8.50;;;3.40;;
5587;SDS011;2816;49.778;9.986;2022-08-03T03:23:44;2.40;;;2.20;;
5587;SDS011;2816;49.778;9.986;2022-08-03T03:26:14;2.53;;;2.30;;
5587;SDS011;2816;49.778;9.986;2022-08-03T03:28:41;3.13;;;2.73;;
5587;SDS011;2816;49.778;9.986;2022-08-03T03:31:09;4.63;;;2.30;;
5587;SDS011;2816;49.778;9.986;2022-08-03T03:33:36;2.50;;;2.30;;
5587;SDS011;2816;49.778;9.986;2022-08-03T03:36:06;3.70;;;2.47;;
5587;SDS011;2816;49.778;9.986;2022-08-03T03:38:33;2.50;;;2.23;;
5587;SDS011;2816;49.778;9.986;2022-08-03T03:41:00;3.50;;;2.57;;
5587;SDS011;2816;49.778;9.986;2022-08-03T03:43:29;3.37;;;2.60;;
5587;SDS011;2816;49.778;9.986;2022-08-03T03:45:57;2.87;;;2.20;;
5587;SDS011;2816;49.778;9.986;2022-08-03T03:48:24;6.30;;;3.60;;
5587;SDS011;2816;49.778;9.986;2022-08-03T03:50:51;8.40;;;3.20;;
5587;SDS011;2816;49.778;9.986;2022-08-03T03:53:18;4.97;;;2.80;;
5587;SDS011;2816;49.778;9.986;2022-08-03T03:55:45;6.00;;;4.13;;
5587;SDS011;2816;49.778;9.986;2022-08-03T03:58:12;4.30;;;3.10;;
5587;SDS011;2816;49.778;9.986;2022-08-03T04:00:41;7.30;;;2.93;;
5587;SDS011;2816;49.778;9.986;2022-08-03T04:03:09;9.60;;;3.87;;
5587;SDS011;2816;49.778;9.986;2022-08-03T04:05:37;5.83;;;3.30;;
5587;SDS011;2816;49.778;9.986;2022-08-03T04:08:22;5.20;;;3.13;;
5587;SDS011;2816;49.778;9.986;2022-08-03T04:11:08;6.57;;;2.97;;
5587;SDS011;2816;49.778;9.986;2022-08-03T04:13:41;2.67;;;2.47;;
5587;SDS011;2816;49.778;9.986;2022-08-03T04:16:13;6.07;;;2.70;;
5587;SDS011;2816;49.778;9.986;2022-08-03T04:18:42;8.37;;;3.30;;
5587;SDS011;2816;49.778;9.986;2022-08-03T04:21:12;7.67;;;2.80;;
5587;SDS011;2816;49.778;9.986;2022-08-03T04:23:43;4.03;;;2.73;;
5587;SDS011;2816;49.778;9.986;2022-08-03T04:26:14;10.03;;;2.80;;
5587;SDS011;2816;49.778;9.986;2022-08-03T04:28:44;4.53;;;2.97;;
5587;SDS011;2816;49.778;9.986;2022-08-03T04:31:14;6.03;;;3.00;;
5587;SDS011;2816;49.778;9.986;2022-08-03T04:33:43;5.23;;;3.17;;
5587;SDS011;2816;49.778;9.986;2022-08-03T04:36:13;2.90;;;2.50;;
5587;SDS011;2816;49.778;9.986;2022-08-03T04:38:44;8.37;;;3.00;;
5587;SDS011;2816;49.778;9.986;2022-08-03T04:41:27;5.10;;;3.17;;
5587;SDS011;2816;49.778;9.986;2022-08-03T04:43:57;4.87;;;3.00;;
5587;SDS011;2816;49.778;9.986;2022-08-03T04:46:28;3.30;;;2.67;;
5587;SDS011;2816;49.778;9.986;2022-08-03T04:49:00;3.47;;;2.50;;
5587;SDS011;2816;49.778;9.986;2022-08-03T04:51:27;2.63;;;2.20;;
5587;SDS011;2816;49.778;9.986;2022-08-03T04:53:54;3.63;;;2.50;;
5587;SDS011;2816;49.778;9.986;2022-08-03T04:56:21;4.40;;;2.80;;
5587;SDS011;2816;49.778;9.986;2022-08-03T04:58:48;9.40;;;2.70;;
5587;SDS011;2816;49.778;9.986;2022-08-03T05:01:15;3.80;;;2.77;;
5587;SDS011;2816;49.778;9.986;2022-08-03T05:03:45;4.03;;;2.87;;
5587;SDS011;2816;49.778;9.986;2022-08-03T05:06:12;5.87;;;2.93;;
5587;SDS011;2816;49.778;9.986;2022-08-03T05:08:39;5.77;;;3.07;;
5587;SDS011;2816;49.778;9.986;2022-08-03T05:11:06;4.30;;;2.90;;
5587;SDS011;2816;49.778;9.986;2022-08-03T05:13:33;5.87;;;3.40;;
5587;SDS011;2816;49.778;9.986;2022-08-03T05:16:00;7.50;;;3.60;;
5587;SDS011;2816;49.778;9.986;2022-08-03T05:18:27;6.97;;;3.40;;
5587;SDS011;2816;49.778;9.986;2022-08-03T05:20:55;16.93;;;3.60;;
5587;SDS011;2816;49.778;9.986;2022-08-03T05:23:22;5.53;;;3.37;;
5587;SDS011;2816;49.778;9.986;2022-08-03T05:25:49;9.60;;;3.73;;
5587;SDS011;2816;49.778;9.986;2022-08-03T05:28:16;6.57;;;4.20;;
5587;SDS011;2816;49.778;9.986;2022-08-03T05:30:43;8.27;;;3.97;;
5587;SDS011;2816;49.778;9.986;2022-08-03T05:33:10;6.50;;;3.73;;
5587;SDS011;2816;49.778;9.986;2022-08-03T05:35:38;6.73;;;3.50;;
5587;SDS011;2816;49.778;9.986;2022-08-03T05:38:06;9.80;;;3.50;;
5587;SDS011;2816;49.778;9.986;2022-08-03T05:40:34;5.00;;;3.43;;
5587;SDS011;2816;49.778;9.986;2022-08-03T05:43:01;10.30;;;3.40;;
5587;SDS011;2816;49.778;9.986;2022-08-03T05:45:28;7.23;;;3.30;;
5587;SDS011;2816;49.778;9.986;2022-08-03T05:47:55;7.10;;;3.00;;
5587;SDS011;2816;49.778;9.986;2022-08-03T05:50:22;10.70;;;3.23;;
5587;SDS011;2816;49.778;9.986;2022-08-03T05:52:49;6.30;;;3.10;;
5587;SDS011;2816;49.778;9.986;2022-08-03T05:55:17;6.30;;;3.20;;
5587;SDS011;2816;49.778;9.986;2022-08-03T05:57:44;6.17;;;3.47;;
5587;SDS011;2816;49.778;9.986;2022-08-03T06:00:12;7.70;;;2.93;;
5587;SDS011;2816;49.778;9.986;2022-08-03T06:02:40;6.10;;;3.00;;
5587;SDS011;2816;49.778;9.986;2022-08-03T06:05:07;15.60;;;3.10;;
5587;SDS011;2816;49.778;9.986;2022-08-03T06:07:35;13.10;;;3.10;;
5587;SDS011;2816;49.778;9.986;2022-08-03T06:10:02;4.90;;;3.30;;
5587;SDS011;2816;49.778;9.986;2022-08-03T06:12:31;7.40;;;3.20;;
5587;SDS011;2816;49.778;9.986;2022-08-03T06:15:00;5.70;;;3.70;;
5587;SDS011;2816;49.778;9.986;2022-08-03T06:17:27;5.60;;;3.10;;
5587;SDS011;2816;49.778;9.986;2022-08-03T06:19:54;12.70;;;3.53;;
5587;SDS011;2816;49.778;9.986;2022-08-03T06:22:21;10.40;;;3.40;;
5587;SDS011;2816;49.778;9.986;2022-08-03T06:24:48;5.10;;;2.60;;
5587;SDS011;2816;49.778;9.986;2022-08-03T06:27:15;9.90;;;2.67;;
5587;SDS011;2816;49.778;9.986;2022-08-03T06:29:44;7.50;;;3.10;;
5587;SDS011;2816;49.778;9.986;2022-08-03T06:32:11;7.60;;;3.37;;
5587;SDS011;2816;49.778;9.986;2022-08-03T06:34:38;5.00;;;2.90;;
5587;SDS011;2816;49.778;9.986;2022-08-03T06:37:05;4.27;;;2.53;;
5587;SDS011;2816;49.778;9.986;2022-08-03T06:39:31;4.07;;;2.57;;
5587;SDS011;2816;49.778;9.986;2022-08-03T06:41:58;5.80;;;2.63;;
5587;SDS011;2816;49.778;9.986;2022-08-03T06:44:25;11.03;;;2.60;;
5587;SDS011;2816;49.778;9.986;2022-08-03T06:46:54;11.07;;;2.90;;
5587;SDS011;2816;49.778;9.986;2022-08-03T06:49:21;8.53;;;3.20;;
5587;SDS011;2816;49.778;9.986;2022-08-03T06:51:48;7.80;;;2.60;;
5587;SDS011;2816;49.778;9.986;2022-08-03T06:54:17;4.10;;;2.57;;
5587;SDS011;2816;49.778;9.986;2022-08-03T06:56:46;3.80;;;2.20;;
5587;SDS011;2816;49.778;9.986;2022-08-03T06:59:13;7.27;;;2.73;;
5587;SDS011;2816;49.778;9.986;2022-08-03T07:01:40;4.53;;;2.40;;
5587;SDS011;2816;49.778;9.986;2022-08-03T07:04:08;2.40;;;2.20;;
5587;SDS011;2816;49.778;9.986;2022-08-03T07:06:36;14.23;;;2.47;;
5587;SDS011;2816;49.778;9.986;2022-08-03T07:09:03;4.93;;;2.60;;
5587;SDS011;2816;49.778;9.986;2022-08-03T07:11:30;4.17;;;2.57;;
5587;SDS011;2816;49.778;9.986;2022-08-03T07:13:57;6.40;;;2.50;;
5587;SDS011;2816;49.778;9.986;2022-08-03T07:16:24;11.63;;;2.50;;
5587;SDS011;2816;49.778;9.986;2022-08-03T07:18:51;8.93;;;2.77;;
5587;SDS011;2816;49.778;9.986;2022-08-03T07:21:19;6.73;;;3.00;;
5587;SDS011;2816;49.778;9.986;2022-08-03T07:23:46;10.80;;;3.00;;
5587;SDS011;2816;49.778;9.986;2022-08-03T07:26:13;17.40;;;4.87;;
5587;SDS011;2816;49.778;9.986;2022-08-03T07:28:40;5.13;;;3.00;;
5587;SDS011;2816;49.778;9.986;2022-08-03T07:31:07;9.10;;;2.40;;
5587;SDS011;2816;49.778;9.986;2022-08-03T07:33:34;4.60;;;2.20;;
5587;SDS011;2816;49.778;9.986;2022-08-03T07:36:01;6.63;;;2.63;;
5587;SDS011;2816;49.778;9.986;2022-08-03T07:38:30;5.10;;;3.00;;
5587;SDS011;2816;49.778;9.986;2022-08-03T07:40:57;2.53;;;2.10;;
5587;SDS011;2816;49.778;9.986;2022-08-03T07:43:24;8.33;;;2.20;;
5587;SDS011;2816;49.778;9.986;2022-08-03T07:45:51;7.53;;;2.40;;
5587;SDS011;2816;49.778;9.986;2022-08-03T07:48:18;7.27;;;2.00;;
5587;SDS011;2816;49.778;9.986;2022-08-03T07:50:45;9.83;;;2.50;;
5587;SDS011;2816;49.778;9.986;2022-08-03T07:53:12;3.93;;;2.90;;
5587;SDS011;2816;49.778;9.986;2022-08-03T07:55:40;3.47;;;2.30;;
5587;SDS011;2816;49.778;9.986;2022-08-03T07:58:08;4.30;;;2.40;;
5587;SDS011;2816;49.778;9.986;2022-08-03T08:00:40;7.07;;;2.10;;
5587;SDS011;2816;49.778;9.986;2022-08-03T08:03:08;2.07;;;1.87;;
5587;SDS011;2816;49.778;9.986;2022-08-03T08:05:36;6.80;;;2.60;;
5587;SDS011;2816;49.778;9.986;2022-08-03T08:08:03;6.07;;;2.40;;
5587;SDS011;2816;49.778;9.986;2022-08-03T08:10:30;4.83;;;2.67;;
5587;SDS011;2816;49.778;9.986;2022-08-03T08:12:59;3.03;;;1.90;;
5587;SDS011;2816;49.778;9.986;2022-08-03T08:15:26;3.07;;;2.30;;
5587;SDS011;2816;49.778;9.986;2022-08-03T08:17:55;8.10;;;2.27;;
5587;SDS011;2816;49.778;9.986;2022-08-03T08:20:24;2.53;;;2.00;;
5587;SDS011;2816;49.778;9.986;2022-08-03T08:22:52;2.80;;;2.10;;
5587;SDS011;2816;49.778;9.986;2022-08-03T08:25:21;2.00;;;1.90;;
5587;SDS011;2816;49.778;9.986;2022-08-03T08:27:48;5.57;;;2.10;;
5587;SDS011;2816;49.778;9.986;2022-08-03T08:30:17;2.93;;;2.17;;
5587;SDS011;2816;49.778;9.986;2022-08-03T08:32:46;3.63;;;1.97;;
5587;SDS011;2816;49.778;9.986;2022-08-03T08:35:14;3.43;;;1.80;;
5587;SDS011;2816;49.778;9.986;2022-08-03T08:37:41;4.37;;;1.97;;
5587;SDS011;2816;49.778;9.986;2022-08-03T08:40:09;3.57;;;2.00;;
5587;SDS011;2816;49.778;9.986;2022-08-03T08:42:38;5.13;;;2.30;;
5587;SDS011;2816;49.778;9.986;2022-08-03T08:45:06;3.67;;;1.80;;
5587;SDS011;2816;49.778;9.986;2022-08-03T08:47:37;5.63;;;2.20;;
5587;SDS011;2816;49.778;9.986;2022-08-03T08:50:06;13.67;;;2.80;;
5587;SDS011;2816;49.778;9.986;2022-08-03T08:52:35;4.90;;;2.20;;
5587;SDS011;2816;49.778;9.986;2022-08-03T08:55:05;4.03;;;2.00;;
5587;SDS011;2816;49.778;9.986;2022-08-03T08:57:35;3.43;;;2.00;;
5587;SDS011;2816;49.778;9.986;2022-08-03T09:00:04;6.67;;;2.43;;
5587;SDS011;2816;49.778;9.986;2022-08-03T09:02:34;3.13;;;2.10;;
5587;SDS011;2816;49.778;9.986;2022-08-03T09:05:03;3.80;;;2.23;;
5587;SDS011;2816;49.778;9.986;2022-08-03T09:07:31;3.50;;;2.10;;
5587;SDS011;2816;49.778;9.986;2022-08-03T09:09:58;3.67;;;2.23;;
5587;SDS011;2816;49.778;9.986;2022-08-03T09:12:25;3.23;;;2.27;;
5587;SDS011;2816;49.778;9.986;2022-08-03T09:14:52;4.93;;;1.87;;
5587;SDS011;2816;49.778;9.986;2022-08-03T09:17:20;5.80;;;1.90;;
5587;SDS011;2816;49.778;9.986;2022-08-03T09:20:02;4.20;;;1.90;;
5587;SDS011;2816;49.778;9.986;2022-08-03T09:22:32;3.70;;;2.00;;
5587;SDS011;2816;49.778;9.986;2022-08-03T09:24:59;7.97;;;2.17;;
5587;SDS011;2816;49.778;9.986;2022-08-03T09:27:40;6.40;;;1.83;;
5587;SDS011;2816;49.778;9.986;2022-08-03T09:30:11;5.50;;;2.07;;
5587;SDS011;2816;49.778;9.986;2022-08-03T09:32:39;3.90;;;1.87;;
5587;SDS011;2816;49.778;9.986;2022-08-03T09:35:07;4.90;;;2.00;;
5587;SDS011;2816;49.778;9.986;2022-08-03T09:37:35;1.90;;;1.80;;
5587;SDS011;2816;49.778;9.986;2022-08-03T09:40:02;2.00;;;1.90;;
5587;SDS011;2816;49.778;9.986;2022-08-03T09:42:30;3.70;;;1.80;;
5587;SDS011;2816;49.778;9.986;2022-08-03T09:44:59;3.80;;;1.80;;
5587;SDS011;2816;49.778;9.986;2022-08-03T09:47:26;2.40;;;1.97;;
5587;SDS011;2816;49.778;9.986;2022-08-03T09:49:55;2.40;;;2.07;;
5587;SDS011;2816;49.778;9.986;2022-08-03T09:52:30;3.97;;;2.10;;
5587;SDS011;2816;49.778;9.986;2022-08-03T09:54:58;1.90;;;1.80;;
5587;SDS011;2816;49.778;9.986;2022-08-03T09:57:26;4.10;;;1.80;;
5587;SDS011;2816;49.778;9.986;2022-08-03T10:00:04;2.60;;;1.70;;
5587;SDS011;2816;49.778;9.986;2022-08-03T10:02:34;2.43;;;1.83;;
5587;SDS011;2816;49.778;9.986;2022-08-03T10:05:02;1.87;;;1.70;;
5587;SDS011;2816;49.778;9.986;2022-08-03T10:07:40;2.43;;;1.60;;
5587;SDS011;2816;49.778;9.986;2022-08-03T10:10:08;1.87;;;1.77;;
5587;SDS011;2816;49.778;9.986;2022-08-03T10:12:36;5.93;;;1.80;;
5587;SDS011;2816;49.778;9.986;2022-08-03T10:15:03;4.60;;;2.00;;
5587;SDS011;2816;49.778;9.986;2022-08-03T10:17:31;4.23;;;1.83;;
5587;SDS011;2816;49.778;9.986;2022-08-03T10:19:58;5.93;;;5.40;;
5587;SDS011;2816;49.778;9.986;2022-08-03T10:22:26;4.80;;;2.23;;
5587;SDS011;2816;49.778;9.986;2022-08-03T10:24:58;3.30;;;1.77;;
5587;SDS011;2816;49.778;9.986;2022-08-03T10:27:26;4.37;;;1.77;;
5587;SDS011;2816;49.778;9.986;2022-08-03T10:29:59;4.77;;;2.00;;
5587;SDS011;2816;49.778;9.986;2022-08-03T10:32:29;3.00;;;1.80;;
5587;SDS011;2816;49.778;9.986;2022-08-03T10:35:01;1.60;;;1.50;;
5587;SDS011;2816;49.778;9.986;2022-08-03T10:37:31;3.83;;;2.00;;
5587;SDS011;2816;49.778;9.986;2022-08-03T10:40:04;3.83;;;2.00;;
5587;SDS011;2816;49.778;9.986;2022-08-03T10:42:33;2.30;;;2.10;;
5587;SDS011;2816;49.778;9.986;2022-08-03T10:45:03;2.30;;;1.80;;
5587;SDS011;2816;49.778;9.986;2022-08-03T10:47:33;4.60;;;1.90;;
5587;SDS011;2816;49.778;9.986;2022-08-03T10:50:01;2.80;;;2.03;;
5587;SDS011;2816;49.778;9.986;2022-08-03T10:52:29;1.70;;;1.60;;
5587;SDS011;2816;49.778;9.986;2022-08-03T10:54:56;3.10;;;1.90;;
5587;SDS011;2816;49.778;9.986;2022-08-03T10:57:45;1.87;;;1.73;;
5587;SDS011;2816;49.778;9.986;2022-08-03T11:00:14;2.37;;;1.60;;
5587;SDS011;2816;49.778;9.986;2022-08-03T11:05:28;4.07;;;2.43;;
5587;SDS011;2816;49.778;9.986;2022-08-03T11:10:43;6.50;;;2.50;;
5587;SDS011;2816;49.778;9.986;2022-08-03T11:13:12;1.73;;;1.63;;
5587;SDS011;2816;49.778;9.986;2022-08-03T11:15:41;3.27;;;1.53;;
5587;SDS011;2816;49.778;9.986;2022-08-03T11:18:10;3.37;;;1.90;;
5587;SDS011;2816;49.778;9.986;2022-08-03T11:20:47;5.53;;;1.83;;
5587;SDS011;2816;49.778;9.986;2022-08-03T11:23:16;2.20;;;1.70;;
5587;SDS011;2816;49.778;9.986;2022-08-03T11:28:39;12.00;;;2.10;;
5587;SDS011;2816;49.778;9.986;2022-08-03T11:34:13;9.67;;;1.97;;
5587;SDS011;2816;49.778;9.986;2022-08-03T11:39:58;2.27;;;2.07;;
5587;SDS011;2816;49.778;9.986;2022-08-03T11:42:37;6.23;;;1.80;;
5587;SDS011;2816;49.778;9.986;2022-08-03T11:45:07;4.50;;;1.80;;
5587;SDS011;2816;49.778;9.986;2022-08-03T11:47:38;1.90;;;1.80;;
5587;SDS011;2816;49.778;9.986;2022-08-03T11:50:06;1.70;;;1.60;;
5587;SDS011;2816;49.778;9.986;2022-08-03T11:52:34;1.50;;;1.40;;
5587;SDS011;2816;49.778;9.986;2022-08-03T11:55:07;1.43;;;1.37;;
5587;SDS011;2816;49.778;9.986;2022-08-03T11:57:36;9.27;;;2.00;;
5587;SDS011;2816;49.778;9.986;2022-08-03T12:05:41;4.00;;;1.90;;
5587;SDS011;2816;49.778;9.986;2022-08-03T12:08:10;3.47;;;1.50;;
5587;SDS011;2816;49.778;9.986;2022-08-03T12:10:39;2.43;;;1.60;;
5587;SDS011;2816;49.778;9.986;2022-08-03T12:13:11;2.80;;;1.57;;
5587;SDS011;2816;49.778;9.986;2022-08-03T12:15:39;4.20;;;1.70;;
5587;SDS011;2816;49.778;9.986;2022-08-03T12:18:14;4.43;;;1.80;;
5587;SDS011;2816;49.778;9.986;2022-08-03T12:20:43;4.20;;;1.50;;
5587;SDS011;2816;49.778;9.986;2022-08-03T12:23:10;2.90;;;1.77;;
5587;SDS011;2816;49.778;9.986;2022-08-03T12:25:39;5.33;;;1.50;;
5587;SDS011;2816;49.778;9.986;2022-08-03T12:28:12;6.80;;;1.73;;
5587;SDS011;2816;49.778;9.986;2022-08-03T12:30:46;1.93;;;1.80;;
5587;SDS011;2816;49.778;9.986;2022-08-03T12:33:18;4.10;;;1.50;;
5587;SDS011;2816;49.778;9.986;2022-08-03T12:36:01;11.30;;;1.70;;
5587;SDS011;2816;49.778;9.986;2022-08-03T12:38:33;3.27;;;1.80;;
5587;SDS011;2816;49.778;9.986;2022-08-03T12:41:03;1.70;;;1.60;;
5587;SDS011;2816;49.778;9.986;2022-08-03T12:43:32;1.57;;;1.47;;
5587;SDS011;2816;49.778;9.986;2022-08-03T12:46:08;7.03;;;1.57;;
5587;SDS011;2816;49.778;9.986;2022-08-03T12:51:32;2.90;;;1.70;;
5587;SDS011;2816;49.778;9.986;2022-08-03T12:54:00;6.50;;;2.20;;
5587;SDS011;2816;49.778;9.986;2022-08-03T12:56:27;2.60;;;1.53;;
5587;SDS011;2816;49.778;9.986;2022-08-03T12:58:54;2.27;;;2.00;;
5587;SDS011;2816;49.778;9.986;2022-08-03T13:01:23;15.63;;;4.43;;
5587;SDS011;2816;49.778;9.986;2022-08-03T13:03:51;4.03;;;1.73;;
5587;SDS011;2816;49.778;9.986;2022-08-03T13:06:20;1.43;;;1.33;;
5587;SDS011;2816;49.778;9.986;2022-08-03T13:08:49;3.63;;;1.57;;
5587;SDS011;2816;49.778;9.986;2022-08-03T13:11:26;3.67;;;1.60;;
5587;SDS011;2816;49.778;9.986;2022-08-03T13:13:54;6.33;;;1.50;;
5587;SDS011;2816;49.778;9.986;2022-08-03T13:16:21;1.97;;;1.50;;
5587;SDS011;2816;49.778;9.986;2022-08-03T13:18:50;6.07;;;1.77;;
5587;SDS011;2816;49.778;9.986;2022-08-03T13:21:18;3.33;;;1.50;;
5587;SDS011;2816;49.778;9.986;2022-08-03T13:23:46;5.03;;;1.77;;
5587;SDS011;2816;49.778;9.986;2022-08-03T13:26:14;3.00;;;1.40;;
5587;SDS011;2816;49.778;9.986;2022-08-03T13:28:41;1.47;;;1.37;;
5587;SDS011;2816;49.778;9.986;2022-08-03T13:31:08;1.53;;;1.43;;
5587;SDS011;2816;49.778;9.986;2022-08-03T13:33:36;1.40;;;1.30;;
5587;SDS011;2816;49.778;9.986;2022-08-03T13:36:05;1.60;;;1.50;;
5587;SDS011;2816;49.778;9.986;2022-08-03T13:38:32;2.83;;;1.47;;
5587;SDS011;2816;49.778;9.986;2022-08-03T13:40:59;4.37;;;1.60;;
5587;SDS011;2816;49.778;9.986;2022-08-03T13:43:28;1.60;;;1.50;;
5587;SDS011;2816;49.778;9.986;2022-08-03T13:45:55;1.50;;;1.40;;
5587;SDS011;2816;49.778;9.986;2022-08-03T13:48:22;2.83;;;1.70;;
5587;SDS011;2816;49.778;9.986;2022-08-03T13:50:50;2.13;;;1.50;;
5587;SDS011;2816;49.778;9.986;2022-08-03T13:53:17;1.53;;;1.43;;
5587;SDS011;2816;49.778;9.986;2022-08-03T13:55:44;2.00;;;1.60;;
5587;SDS011;2816;49.778;9.986;2022-08-03T13:58:11;1.70;;;1.60;;
5587;SDS011;2816;49.778;9.986;2022-08-03T14:00:38;2.50;;;1.40;;
5587;SDS011;2816;49.778;9.986;2022-08-03T14:03:05;2.03;;;1.73;;
5587;SDS011;2816;49.778;9.986;2022-08-03T14:05:32;3.30;;;1.50;;
5587;SDS011;2816;49.778;9.986;2022-08-03T14:08:03;2.17;;;1.90;;
5587;SDS011;2816;49.778;9.986;2022-08-03T14:10:32;8.33;;;1.90;;
5587;SDS011;2816;49.778;9.986;2022-08-03T14:13:00;2.83;;;1.47;;
5587;SDS011;2816;49.778;9.986;2022-08-03T14:15:28;1.50;;;1.40;;
5587;SDS011;2816;49.778;9.986;2022-08-03T14:17:54;4.93;;;1.20;;
5587;SDS011;2816;49.778;9.986;2022-08-03T14:20:22;7.70;;;1.60;;
5587;SDS011;2816;49.778;9.986;2022-08-03T14:22:49;3.90;;;1.70;;
5587;SDS011;2816;49.778;9.986;2022-08-03T14:25:17;1.53;;;1.30;;
5587;SDS011;2816;49.778;9.986;2022-08-03T14:27:44;2.00;;;1.80;;
5587;SDS011;2816;49.778;9.986;2022-08-03T14:30:12;1.60;;;1.50;;
5587;SDS011;2816;49.778;9.986;2022-08-03T14:32:39;2.70;;;1.67;;
5587;SDS011;2816;49.778;9.986;2022-08-03T14:35:06;2.30;;;1.50;;
5587;SDS011;2816;49.778;9.986;2022-08-03T14:37:34;6.00;;;2.77;;
5587;SDS011;2816;49.778;9.986;2022-08-03T14:40:01;8.10;;;1.60;;
5587;SDS011;2816;49.778;9.986;2022-08-03T14:42:29;3.73;;;1.37;;
5587;SDS011;2816;49.778;9.986;2022-08-03T14:44:56;1.60;;;1.50;;
5587;SDS011;2816;49.778;9.986;2022-08-03T14:47:23;2.33;;;1.53;;
5587;SDS011;2816;49.778;9.986;2022-08-03T14:49:50;1.90;;;1.80;;
5587;SDS011;2816;49.778;9.986;2022-08-03T14:52:17;1.63;;;1.53;;
5587;SDS011;2816;49.778;9.986;2022-08-03T14:54:44;4.87;;;1.60;;
5587;SDS011;2816;49.778;9.986;2022-08-03T14:57:11;1.40;;;1.30;;
5587;SDS011;2816;49.778;9.986;2022-08-03T14:59:39;8.70;;;2.43;;
5587;SDS011;2816;49.778;9.986;2022-08-03T15:02:06;4.53;;;1.90;;
5587;SDS011;2816;49.778;9.986;2022-08-03T15:04:33;3.47;;;1.50;;
5587;SDS011;2816;49.778;9.986;2022-08-03T15:07:00;1.57;;;1.43;;
5587;SDS011;2816;49.778;9.986;2022-08-03T15:09:27;1.60;;;1.50;;
5587;SDS011;2816;49.778;9.986;2022-08-03T15:11:54;2.80;;;1.60;;
5587;SDS011;2816;49.778;9.986;2022-08-03T15:14:21;2.10;;;1.63;;
5587;SDS011;2816;49.778;9.986;2022-08-03T15:16:50;4.40;;;1.93;;
5587;SDS011;2816;49.778;9.986;2022-08-03T15:19:16;2.53;;;1.80;;
5587;SDS011;2816;49.778;9.986;2022-08-03T15:21:43;9.53;;;1.57;;
5587;SDS011;2816;49.778;9.986;2022-08-03T15:24:10;3.00;;;1.90;;
5587;SDS011;2816;49.778;9.986;2022-08-03T15:26:37;4.63;;;2.10;;
5587;SDS011;2816;49.778;9.986;2022-08-03T15:29:05;3.83;;;2.37;;
5587;SDS011;2816;49.778;9.986;2022-08-03T15:31:33;8.90;;;2.27;;
5587;SDS011;2816;49.778;9.986;2022-08-03T15:34:01;4.97;;;1.53;;
5587;SDS011;2816;49.778;9.986;2022-08-03T15:36:28;3.63;;;1.90;;
5587;SDS011;2816;49.778;9.986;2022-08-03T15:38:56;2.20;;;2.00;;
5587;SDS011;2816;49.778;9.986;2022-08-03T15:41:23;6.27;;;1.40;;
5587;SDS011;2816;49.778;9.986;2022-08-03T15:43:50;23.60;;;5.70;;
5587;SDS011;2816;49.778;9.986;2022-08-03T15:46:17;3.33;;;1.70;;
5587;SDS011;2816;49.778;9.986;2022-08-03T15:48:44;1.70;;;1.60;;